Time;durP1;ratioP1;P1;durP2;ratioP2;P2;SDS_P1;SDS_P2;PMS_P1;PMS_P2;Temp;Humidity;BMP_temperature;BMP_pressure;BME280_temperature;BME280_humidity;BME280_pressure;Samples;Min_cycle;Max_cycle;Signal;HPM_P1;HPM_P2
2022/07/05 00:01:22;;;;;;;2.00;1.80;;;23.50;53.60;;;;;;5069099;28;20202;-75
2022/07/05 00:03:49;;;;;;;1.75;1.60;;;23.50;53.70;;;;;;5069089;28;20556;-76
2022/07/05 00:06:16;;;;;;;2.22;1.50;;;23.50;53.70;;;;;;5053817;28;20184;-75
2022/07/05 00:08:44;;;;;;;1.85;1.50;;;23.50;53.40;;;;;;5052338;28;20237;-75
2022/07/05 00:11:11;;;;;;;1.58;1.48;;;23.50;53.40;;;;;;5053522;28;20563;-75
2022/07/05 00:13:38;;;;;;;1.90;1.80;;;23.40;53.20;;;;;;5052361;28;20542;-75
2022/07/05 00:16:05;;;;;;;1.67;1.58;;;23.40;53.30;;;;;;5054079;28;20188;-75
2022/07/05 00:18:32;;;;;;;1.95;1.73;;;23.40;53.50;;;;;;5053410;28;20263;-75
2022/07/05 00:21:00;;;;;;;2.45;1.60;;;23.40;53.50;;;;;;5052066;28;20203;-75
2022/07/05 00:23:27;;;;;;;2.38;1.70;;;23.40;53.50;;;;;;5069083;28;20207;-75
2022/07/05 00:25:55;;;;;;;2.53;1.70;;;23.40;53.30;;;;;;5070092;28;20191;-75
2022/07/05 00:28:22;;;;;;;1.70;1.60;;;23.40;53.20;;;;;;5068967;28;20218;-75
2022/07/05 00:30:49;;;;;;;2.67;1.80;;;23.40;53.30;;;;;;5052072;28;20705;-75
2022/07/05 00:33:16;;;;;;;2.63;1.70;;;23.30;53.40;;;;;;5052064;28;20249;-75
2022/07/05 00:35:43;;;;;;;2.25;2.05;;;23.30;53.40;;;;;;5052157;28;20199;-74
2022/07/05 00:38:10;;;;;;;1.80;1.70;;;23.30;53.50;;;;;;5052213;28;20219;-75
2022/07/05 00:40:37;;;;;;;2.00;1.80;;;23.30;53.70;;;;;;5052009;28;20579;-75
2022/07/05 00:43:06;;;;;;;2.00;1.90;;;23.30;53.60;;;;;;5052174;28;20617;-75
2022/07/05 00:45:33;;;;;;;1.80;1.70;;;23.30;53.50;;;;;;5052001;28;20722;-74
2022/07/05 00:48:00;;;;;;;3.15;1.98;;;23.20;53.60;;;;;;5053109;28;20215;-74
2022/07/05 00:50:27;;;;;;;1.90;1.80;;;23.30;53.80;;;;;;5068934;28;20207;-74
2022/07/05 00:52:55;;;;;;;2.15;1.88;;;23.20;53.70;;;;;;5070679;28;20606;-74
2022/07/05 00:55:23;;;;;;;1.88;1.77;;;23.20;53.70;;;;;;5073077;28;20671;-74
2022/07/05 00:57:50;;;;;;;2.03;1.90;;;23.20;53.70;;;;;;5072808;28;20664;-74
2022/07/05 01:00:19;;;;;;;2.05;1.85;;;23.20;53.60;;;;;;5056118;28;20199;-74
2022/07/05 01:02:47;;;;;;;1.98;1.80;;;23.20;53.70;;;;;;5056012;28;20191;-74
2022/07/05 01:05:14;;;;;;;1.98;1.70;;;23.10;53.60;;;;;;5055966;28;20245;-74
2022/07/05 01:07:41;;;;;;;2.15;1.98;;;23.10;54.20;;;;;;5055840;28;20645;-75
2022/07/05 01:10:09;;;;;;;2.10;1.90;;;23.10;53.60;;;;;;5055816;28;20229;-74
2022/07/05 01:12:38;;;;;;;2.47;1.95;;;23.10;53.50;;;;;;5072271;28;20759;-74
2022/07/05 01:15:07;;;;;;;1.92;1.80;;;23.10;53.80;;;;;;5055899;28;20195;-74
2022/07/05 01:17:36;;;;;;;2.30;2.05;;;23.10;53.80;;;;;;5055613;28;20219;-74
2022/07/05 01:20:05;;;;;;;2.10;1.90;;;23.10;53.70;;;;;;5055547;28;20196;-74
2022/07/05 01:22:40;;;;;;;2.40;1.80;;;23.10;53.80;;;;;;5055256;28;20578;-74
2022/07/05 01:25:07;;;;;;;2.15;1.98;;;23.10;53.80;;;;;;5055448;28;20206;-75
2022/07/05 01:27:35;;;;;;;1.85;1.73;;;23.00;53.70;;;;;;5055414;28;20238;-74
2022/07/05 01:30:02;;;;;;;3.08;2.13;;;23.10;53.70;;;;;;5055232;28;20294;-74
2022/07/05 01:32:29;;;;;;;2.10;1.90;;;23.00;53.70;;;;;;5055466;28;20231;-74
2022/07/05 01:34:57;;;;;;;1.90;1.80;;;23.00;53.70;;;;;;5071959;28;20192;-74
2022/07/05 01:37:24;;;;;;;2.08;1.90;;;23.00;53.80;;;;;;5055254;28;20212;-75
2022/07/05 01:39:53;;;;;;;1.90;1.80;;;23.00;54.00;;;;;;5071776;28;20682;-75
2022/07/05 01:42:20;;;;;;;2.22;1.98;;;23.00;54.10;;;;;;5055214;28;20195;-76
2022/07/05 01:44:47;;;;;;;2.05;1.90;;;23.00;54.10;;;;;;5071732;28;20272;-74
2022/07/05 01:47:15;;;;;;;2.13;1.92;;;23.00;54.10;;;;;;5055772;28;20215;-74
2022/07/05 01:49:44;;;;;;;2.35;2.15;;;22.90;54.10;;;;;;5071825;28;20226;-74
2022/07/05 01:52:11;;;;;;;2.13;1.92;;;22.90;54.00;;;;;;5071545;28;20241;-75
2022/07/05 01:54:40;;;;;;;2.42;2.22;;;22.90;54.00;;;;;;5054898;28;20187;-75
2022/07/05 01:57:09;;;;;;;2.30;1.85;;;22.90;54.00;;;;;;5054681;28;20250;-74
2022/07/05 01:59:37;;;;;;;1.95;1.85;;;22.90;54.00;;;;;;5071444;28;20709;-75
2022/07/05 02:02:04;;;;;;;1.95;1.85;;;22.90;54.00;;;;;;5071264;28;20733;-74
2022/07/05 02:04:31;;;;;;;2.53;1.88;;;22.80;54.10;;;;;;5054840;28;20218;-74
2022/07/05 02:06:58;;;;;;;1.80;1.70;;;22.80;54.00;;;;;;5072554;28;20275;-75
2022/07/05 02:09:26;;;;;;;2.30;2.10;;;22.80;54.10;;;;;;5054504;28;20195;-75
2022/07/05 02:11:53;;;;;;;1.98;1.77;;;22.80;54.10;;;;;;5071094;28;20706;-75
2022/07/05 02:14:22;;;;;;;2.13;2.00;;;22.80;54.10;;;;;;5054939;28;20222;-75
2022/07/05 02:16:49;;;;;;;1.98;1.80;;;22.80;54.20;;;;;;5071162;28;20196;-75
2022/07/05 02:19:17;;;;;;;2.63;2.10;;;22.70;54.10;;;;;;5054364;28;20682;-75
2022/07/05 02:21:45;;;;;;;2.40;1.98;;;22.70;54.10;;;;;;5054096;28;20207;-74
2022/07/05 02:24:16;;;;;;;2.50;1.90;;;22.70;54.10;;;;;;5054272;28;20218;-75
2022/07/05 02:27:01;;;;;;;2.53;2.00;;;22.70;54.10;;;;;;5054578;28;20206;-75
2022/07/05 02:29:30;;;;;;;1.80;1.70;;;22.70;54.20;;;;;;5070785;28;20270;-74
2022/07/05 02:31:58;;;;;;;2.55;1.77;;;22.70;54.20;;;;;;5053996;28;20195;-74
2022/07/05 02:34:28;;;;;;;2.25;2.05;;;22.70;54.20;;;;;;5070763;28;20195;-74
2022/07/05 02:36:56;;;;;;;2.97;2.10;;;22.70;54.20;;;;;;5054077;28;20192;-74
2022/07/05 02:39:23;;;;;;;2.13;2.00;;;22.70;54.20;;;;;;5070995;28;20203;-74
2022/07/05 02:41:53;;;;;;;2.10;1.98;;;22.60;54.10;;;;;;5070989;28;20206;-74
2022/07/05 02:44:21;;;;;;;2.15;2.00;;;22.70;54.20;;;;;;5053805;28;20222;-74
2022/07/05 02:46:51;;;;;;;2.03;1.92;;;22.60;54.10;;;;;;5053809;28;20223;-75
2022/07/05 02:49:18;;;;;;;2.58;1.88;;;22.60;54.10;;;;;;5070847;28;20657;-74
2022/07/05 02:51:46;;;;;;;2.00;1.80;;;22.60;54.20;;;;;;5053914;28;20245;-74
2022/07/05 02:54:16;;;;;;;1.92;1.83;;;22.60;54.20;;;;;;5070416;28;20226;-74
2022/07/05 02:56:44;;;;;;;2.65;1.90;;;22.60;54.10;;;;;;5053882;28;20196;-74
2022/07/05 02:59:14;;;;;;;3.13;2.03;;;22.60;54.30;;;;;;5053669;28;20271;-74
2022/07/05 03:01:42;;;;;;;2.03;1.92;;;22.60;54.30;;;;;;5053878;28;20195;-74
2022/07/05 03:04:15;;;;;;;1.90;1.70;;;22.50;54.20;;;;;;5070315;28;20215;-74
2022/07/05 03:06:49;;;;;;;2.13;1.80;;;22.50;54.30;;;;;;5053447;28;20199;-76
2022/07/05 03:09:16;;;;;;;2.03;1.83;;;22.50;54.30;;;;;;5053962;28;20290;-75
2022/07/05 03:11:44;;;;;;;2.03;1.85;;;22.50;54.20;;;;;;5054742;28;20203;-74
2022/07/05 03:14:11;;;;;;;2.00;1.90;;;22.50;54.20;;;;;;5054479;28;20198;-75
2022/07/05 03:16:39;;;;;;;2.40;1.90;;;22.50;54.10;;;;;;5070564;28;20192;-75
2022/07/05 03:19:07;;;;;;;2.70;1.92;;;22.50;54.10;;;;;;5054305;28;20710;-75
2022/07/05 03:21:35;;;;;;;2.25;2.05;;;22.50;54.10;;;;;;5054293;28;20302;-75
2022/07/05 03:24:02;;;;;;;2.50;2.15;;;22.50;53.90;;;;;;5069832;28;20199;-75
2022/07/05 03:26:31;;;;;;;2.20;1.92;;;22.50;54.10;;;;;;5053368;28;20195;-75
2022/07/05 03:28:58;;;;;;;2.20;2.10;;;22.50;54.10;;;;;;5053062;28;20705;-75
2022/07/05 03:31:25;;;;;;;2.08;1.80;;;22.50;54.10;;;;;;5052989;28;20191;-75
2022/07/05 03:33:53;;;;;;;2.10;1.80;;;22.50;54.00;;;;;;5052761;28;20672;-75
2022/07/05 03:36:20;;;;;;;2.05;1.85;;;22.50;54.00;;;;;;5052781;28;20660;-75
2022/07/05 03:38:49;;;;;;;2.00;1.90;;;22.50;54.00;;;;;;5052768;28;20212;-75
2022/07/05 03:41:16;;;;;;;2.42;2.10;;;22.50;53.90;;;;;;5052657;28;20286;-75
2022/07/05 03:43:43;;;;;;;1.90;1.80;;;22.50;53.90;;;;;;5052746;28;20640;-75
2022/07/05 03:46:11;;;;;;;2.30;2.00;;;22.50;53.90;;;;;;5052927;28;20269;-75
2022/07/05 03:48:40;;;;;;;2.30;2.10;;;22.50;53.90;;;;;;5052569;28;20211;-74
2022/07/05 03:51:08;;;;;;;2.25;1.80;;;22.50;53.90;;;;;;5052512;28;20202;-75
2022/07/05 03:53:36;;;;;;;2.13;2.03;;;22.60;53.80;;;;;;5069449;28;20241;-74
2022/07/05 03:56:05;;;;;;;2.17;2.05;;;22.60;53.80;;;;;;5052588;28;20195;-75
2022/07/05 03:58:32;;;;;;;2.00;1.80;;;22.60;54.50;;;;;;5052277;28;20212;-74
2022/07/05 04:01:00;;;;;;;2.25;2.00;;;22.60;53.70;;;;;;5052358;28;20188;-74
2022/07/05 04:03:28;;;;;;;2.22;2.00;;;22.60;53.70;;;;;;5052191;28;20219;-74
2022/07/05 04:05:56;;;;;;;2.22;2.03;;;22.60;53.80;;;;;;5052201;28;20594;-74
2022/07/05 04:08:24;;;;;;;2.63;2.00;;;22.60;53.90;;;;;;5052114;28;20302;-74
2022/07/05 04:10:51;;;;;;;2.40;2.20;;;22.60;53.90;;;;;;5052761;28;20282;-74
2022/07/05 04:13:22;;;;;;;2.42;2.22;;;22.60;54.10;;;;;;5052270;28;20278;-74
2022/07/05 04:15:53;;;;;;;2.40;2.20;;;22.60;54.10;;;;;;5052218;28;20193;-74
2022/07/05 04:18:20;;;;;;;2.35;2.15;;;22.60;54.20;;;;;;5052170;28;20239;-75
2022/07/05 04:20:48;;;;;;;1.92;1.83;;;22.60;54.20;;;;;;5052074;28;20671;-75
2022/07/05 04:23:15;;;;;;;2.10;1.90;;;22.50;54.20;;;;;;5052724;28;20302;-75
2022/07/05 04:25:42;;;;;;;2.25;1.85;;;22.60;54.10;;;;;;5051992;28;20633;-74
2022/07/05 04:28:18;;;;;;;1.95;1.85;;;22.60;54.20;;;;;;5052235;28;20744;-74
2022/07/05 04:30:49;;;;;;;2.30;2.20;;;22.60;54.20;;;;;;5051990;28;20202;-74
2022/07/05 04:33:18;;;;;;;2.20;2.00;;;22.60;54.20;;;;;;5052075;28;20717;-74
2022/07/05 04:35:47;;;;;;;2.33;2.10;;;22.60;54.40;;;;;;5052026;28;20605;-74
2022/07/05 04:38:16;;;;;;;2.30;2.15;;;22.60;54.40;;;;;;5098020;22;20202;-66
2022/07/05 04:40:44;;;;;;;2.75;2.40;;;22.60;54.50;;;;;;5052944;28;20186;-66
2022/07/05 04:43:11;;;;;;;2.80;2.50;;;22.50;54.50;;;;;;5052236;28;20211;-67
2022/07/05 04:45:38;;;;;;;3.00;2.50;;;22.30;55.00;;;;;;5052201;28;20237;-67
2022/07/05 04:48:07;;;;;;;3.85;2.05;;;22.00;55.10;;;;;;5052297;28;20203;-67
2022/07/05 04:50:37;;;;;;;4.38;2.67;;;21.90;55.40;;;;;;5052471;28;20199;-67
2022/07/05 04:53:05;;;;;;;3.85;2.83;;;21.80;55.60;;;;;;5053042;28;20202;-67
2022/07/05 04:55:32;;;;;;;3.70;2.80;;;21.70;56.00;;;;;;5069438;28;20196;-69
2022/07/05 04:57:59;;;;;;;2.78;2.40;;;21.60;56.50;;;;;;5052964;28;20196;-66
2022/07/05 05:00:26;;;;;;;3.20;2.70;;;21.70;56.90;;;;;;5069720;28;20254;-67
2022/07/05 05:02:53;;;;;;;3.55;2.58;;;21.60;56.10;;;;;;5052287;28;20201;-67
2022/07/05 05:05:22;;;;;;;4.25;2.97;;;21.70;56.70;;;;;;5052175;28;20251;-66
2022/07/05 05:07:49;;;;;;;3.78;2.88;;;21.70;56.80;;;;;;5053509;28;20606;-65
2022/07/05 05:10:16;;;;;;;2.72;2.50;;;22.10;56.00;;;;;;5051906;28;20215;-68
2022/07/05 05:12:44;;;;;;;3.40;2.58;;;22.40;55.20;;;;;;5051787;28;20577;-67
2022/07/05 05:15:11;;;;;;;2.47;2.28;;;22.80;54.70;;;;;;5068732;28;20576;-67
2022/07/05 05:17:38;;;;;;;2.42;2.22;;;23.20;54.10;;;;;;5053044;28;20280;-67
2022/07/05 05:20:07;;;;;;;4.30;2.38;;;23.50;53.30;;;;;;5051677;28;20726;-67
2022/07/05 05:22:36;;;;;;;3.63;2.53;;;23.70;52.70;;;;;;5052059;28;20277;-66
2022/07/05 05:25:03;;;;;;;3.00;2.15;;;23.90;52.20;;;;;;5068670;28;20215;-67
2022/07/05 05:27:30;;;;;;;2.47;2.28;;;24.00;51.60;;;;;;5053253;28;20265;-67
2022/07/05 05:29:57;;;;;;;3.22;2.47;;;24.20;51.10;;;;;;5068348;28;20727;-67
2022/07/05 05:32:25;;;;;;;3.08;2.20;;;24.30;50.80;;;;;;5068383;28;20206;-67
2022/07/05 05:34:52;;;;;;;2.85;2.20;;;24.40;50.60;;;;;;5051770;28;20191;-67
2022/07/05 05:37:19;;;;;;;2.88;2.25;;;24.40;50.70;;;;;;5051902;28;20200;-67
2022/07/05 05:39:48;;;;;;;3.15;2.20;;;24.60;50.70;;;;;;5054492;28;20258;-68
2022/07/05 05:42:15;;;;;;;3.53;2.40;;;24.70;50.70;;;;;;5073040;28;20223;-68
2022/07/05 05:44:42;;;;;;;3.00;2.42;;;24.80;50.20;;;;;;5072733;28;20203;-67
2022/07/05 05:47:09;;;;;;;4.22;2.10;;;25.10;49.90;;;;;;5055506;28;20203;-68
2022/07/05 05:49:36;;;;;;;3.47;2.47;;;25.20;49.40;;;;;;5055192;28;20222;-66
2022/07/05 05:52:04;;;;;;;2.90;2.20;;;25.40;49.10;;;;;;5056405;28;20196;-68
2022/07/05 05:54:31;;;;;;;2.58;1.80;;;25.50;48.90;;;;;;5055261;28;20214;-68
2022/07/05 05:57:00;;;;;;;2.25;2.00;;;25.60;48.70;;;;;;5055482;28;20202;-68
2022/07/05 05:59:27;;;;;;;2.28;1.98;;;25.60;48.40;;;;;;5054934;28;20219;-67
2022/07/05 06:01:54;;;;;;;2.55;1.85;;;25.80;48.30;;;;;;5054818;28;20195;-68
2022/07/05 06:04:21;;;;;;;2.30;2.10;;;25.80;48.10;;;;;;5055071;28;20203;-68
2022/07/05 06:06:48;;;;;;;3.38;2.10;;;25.90;47.90;;;;;;5056116;28;20253;-67
2022/07/05 06:09:15;;;;;;;2.10;1.90;;;26.10;47.80;;;;;;5054739;28;20215;-68
2022/07/05 06:11:42;;;;;;;2.22;1.98;;;26.20;48.20;;;;;;5055011;28;20195;-68
2022/07/05 06:14:11;;;;;;;3.00;2.25;;;26.20;47.40;;;;;;5071647;28;20206;-68
2022/07/05 06:16:38;;;;;;;2.55;2.05;;;26.30;47.20;;;;;;5078753;28;20192;-67
2022/07/05 06:19:05;;;;;;;2.25;2.05;;;26.40;47.00;;;;;;5060610;28;20226;-68
2022/07/05 06:21:32;;;;;;;2.10;1.90;;;26.50;46.80;;;;;;5054603;28;20290;-68
2022/07/05 06:23:59;;;;;;;2.85;2.30;;;26.60;46.70;;;;;;5056425;28;20188;-68
2022/07/05 06:26:26;;;;;;;3.33;2.10;;;26.60;46.50;;;;;;5071552;28;20300;-68
2022/07/05 06:28:53;;;;;;;2.45;2.13;;;26.70;47.00;;;;;;5054722;28;20215;-68
2022/07/05 06:31:21;;;;;;;3.78;2.28;;;26.80;46.30;;;;;;5054803;28;20638;-68
2022/07/05 06:33:48;;;;;;;2.63;2.17;;;26.90;46.30;;;;;;5071744;28;20195;-68
2022/07/05 06:36:15;;;;;;;2.20;1.98;;;26.90;46.10;;;;;;5072320;28;20266;-66
2022/07/05 06:38:43;;;;;;;2.78;2.10;;;27.00;46.00;;;;;;5054837;28;20226;-67
2022/07/05 06:41:09;;;;;;;3.00;2.00;;;27.10;45.90;;;;;;5054550;28;20225;-68
2022/07/05 06:43:36;;;;;;;2.13;1.92;;;27.10;45.80;;;;;;5054614;28;20199;-68
2022/07/05 06:46:08;;;;;;;2.83;2.28;;;27.20;45.70;;;;;;5054242;28;20336;-67
2022/07/05 06:48:37;;;;;;;3.65;2.20;;;27.20;45.50;;;;;;5055158;28;20264;-68
2022/07/05 06:51:04;;;;;;;2.50;2.00;;;27.30;45.40;;;;;;5069426;28;20205;-67
2022/07/05 06:53:31;;;;;;;2.30;2.10;;;27.30;45.20;;;;;;5053856;28;20228;-67
2022/07/05 06:55:58;;;;;;;2.90;2.15;;;27.40;45.20;;;;;;5055579;28;20253;-68
2022/07/05 06:58:25;;;;;;;4.07;2.40;;;27.50;45.00;;;;;;5053751;28;20237;-68
2022/07/05 07:00:53;;;;;;;2.20;1.92;;;27.50;44.90;;;;;;5053822;28;20253;-67
2022/07/05 07:03:20;;;;;;;2.25;2.05;;;27.60;44.80;;;;;;5055033;28;20190;-67
2022/07/05 07:05:50;;;;;;;2.17;1.98;;;27.60;44.60;;;;;;5070672;28;20711;-68
2022/07/05 07:11:02;;;;;;;3.22;1.95;;;27.70;45.00;;;;;;5053590;28;20183;-68
2022/07/05 07:13:31;;;;;;;3.22;2.00;;;27.80;44.20;;;;;;5054650;28;20195;-68
2022/07/05 07:15:57;;;;;;;2.28;1.92;;;27.80;44.10;;;;;;5053309;28;20209;-67
2022/07/05 07:18:25;;;;;;;1.92;1.83;;;27.90;44.00;;;;;;5054824;28;20297;-68
2022/07/05 07:20:53;;;;;;;2.33;2.05;;;28.00;43.90;;;;;;5054514;28;20194;-68
2022/07/05 07:23:20;;;;;;;3.38;2.05;;;28.00;43.80;;;;;;5069817;28;20198;-68
2022/07/05 07:25:48;;;;;;;2.92;2.08;;;28.10;43.60;;;;;;5069710;28;20218;-68
2022/07/05 07:28:15;;;;;;;2.13;1.92;;;28.10;43.50;;;;;;5053181;28;20277;-68
2022/07/05 07:30:42;;;;;;;3.33;2.00;;;28.20;43.40;;;;;;5054461;28;20195;-68
2022/07/05 07:33:09;;;;;;;2.28;1.90;;;28.20;43.20;;;;;;5054562;28;20613;-68
2022/07/05 07:35:36;;;;;;;2.22;2.00;;;28.30;43.10;;;;;;5054634;28;20576;-68
2022/07/05 07:38:05;;;;;;;2.50;2.15;;;28.30;43.00;;;;;;5052724;28;20199;-68
2022/07/05 07:40:32;;;;;;;2.35;2.00;;;28.40;43.00;;;;;;5054187;28;20187;-68
2022/07/05 07:42:59;;;;;;;1.90;1.80;;;28.40;42.80;;;;;;5069460;28;20285;-67
2022/07/05 07:45:27;;;;;;;2.20;1.98;;;28.50;42.80;;;;;;5053945;28;20270;-68
2022/07/05 07:47:55;;;;;;;2.20;1.90;;;28.50;42.80;;;;;;5069338;28;20686;-68
2022/07/05 07:50:22;;;;;;;2.50;2.00;;;28.50;42.70;;;;;;5052559;28;20211;-68
2022/07/05 07:52:49;;;;;;;1.88;1.77;;;28.60;42.60;;;;;;5052648;28;20198;-68
2022/07/05 07:55:18;;;;;;;4.13;1.85;;;28.60;42.50;;;;;;5053927;28;20183;-68
2022/07/05 07:57:45;;;;;;;2.90;2.00;;;28.60;42.50;;;;;;5052667;28;20685;-67
2022/07/05 08:00:13;;;;;;;3.17;1.88;;;28.60;42.50;;;;;;5052723;28;20218;-68
2022/07/05 08:02:40;;;;;;;2.58;2.10;;;28.60;42.50;;;;;;5054130;28;20571;-68
2022/07/05 08:05:09;;;;;;;1.85;1.73;;;28.60;42.30;;;;;;5053316;28;20201;-70
2022/07/05 08:07:36;;;;;;;2.30;1.88;;;28.60;42.30;;;;;;5052486;28;20721;-67
2022/07/05 08:10:03;;;;;;;2.20;1.90;;;28.70;42.30;;;;;;5069451;28;20224;-68
2022/07/05 08:12:32;;;;;;;2.13;1.80;;;28.70;42.20;;;;;;5052409;28;20205;-68
2022/07/05 08:14:59;;;;;;;1.92;1.70;;;28.70;42.70;;;;;;5052632;28;20667;-66
2022/07/05 08:17:26;;;;;;;2.15;1.83;;;28.70;42.10;;;;;;5053028;28;20186;-68
2022/07/05 08:22:38;;;;;;;1.67;1.58;;;28.70;42.00;;;;;;5056083;28;20183;-68
2022/07/05 08:25:05;;;;;;;2.85;1.90;;;28.70;42.00;;;;;;5056886;28;20193;-68
2022/07/05 08:27:33;;;;;;;2.05;1.77;;;28.80;42.20;;;;;;5052519;28;20217;-67
2022/07/05 08:30:00;;;;;;;3.70;1.90;;;28.70;42.10;;;;;;5052330;28;20776;-67
2022/07/05 08:32:28;;;;;;;2.25;1.60;;;28.70;42.10;;;;;;5052354;28;20195;-67
2022/07/05 08:34:55;;;;;;;2.17;1.90;;;28.70;42.20;;;;;;5053645;28;20554;-68
2022/07/05 08:37:22;;;;;;;2.00;1.77;;;28.70;42.10;;;;;;5053457;28;20187;-68
2022/07/05 08:39:49;;;;;;;1.90;1.80;;;28.70;42.20;;;;;;5052129;28;20707;-68
2022/07/05 08:42:16;;;;;;;2.08;1.88;;;28.70;42.80;;;;;;5053368;28;20565;-68
2022/07/05 08:44:45;;;;;;;1.65;1.55;;;28.70;42.90;;;;;;5068804;28;20198;-68
2022/07/05 08:47:12;;;;;;;1.90;1.80;;;28.70;42.90;;;;;;5068587;28;20691;-68
2022/07/05 08:49:41;;;;;;;3.58;2.00;;;28.70;42.40;;;;;;5068473;28;20225;-68
2022/07/05 08:52:10;;;;;;;1.88;1.75;;;28.70;42.40;;;;;;5053001;28;20190;-67
2022/07/05 08:54:37;;;;;;;1.65;1.55;;;28.60;42.50;;;;;;5051961;28;20194;-68
2022/07/05 08:57:04;;;;;;;1.90;1.80;;;28.60;42.40;;;;;;5053105;28;20186;-67
2022/07/05 08:59:31;;;;;;;2.00;1.75;;;28.60;42.40;;;;;;5051890;28;20218;-68
2022/07/05 09:02:00;;;;;;;1.80;1.65;;;28.60;42.50;;;;;;5051716;28;20718;-68
2022/07/05 09:04:29;;;;;;;1.95;1.80;;;28.60;42.60;;;;;;5051821;28;20651;-68
2022/07/05 09:06:56;;;;;;;1.90;1.70;;;28.60;42.50;;;;;;5051558;28;20241;-68
2022/07/05 09:09:23;;;;;;;1.80;1.70;;;28.70;42.50;;;;;;5068612;28;20223;-68
2022/07/05 09:11:50;;;;;;;2.53;1.90;;;28.80;42.50;;;;;;5068805;28;20190;-68
2022/07/05 09:14:23;;;;;;;1.92;1.70;;;28.80;42.50;;;;;;5055537;28;20284;-68
2022/07/05 09:16:50;;;;;;;1.83;1.73;;;28.70;42.40;;;;;;5072418;28;20223;-68
2022/07/05 09:19:18;;;;;;;2.03;1.80;;;28.80;42.50;;;;;;5055515;28;20219;-67
2022/07/05 09:21:45;;;;;;;2.08;1.70;;;28.80;43.20;;;;;;5055575;28;20199;-67
2022/07/05 09:24:13;;;;;;;1.65;1.55;;;28.80;42.60;;;;;;5055565;28;20225;-68
2022/07/05 09:26:41;;;;;;;2.08;1.60;;;28.70;42.50;;;;;;5071986;28;20207;-68
2022/07/05 09:29:09;;;;;;;1.70;1.60;;;28.70;42.60;;;;;;5055393;28;20700;-68
2022/07/05 09:31:38;;;;;;;1.88;1.65;;;28.70;42.60;;;;;;5055369;28;20202;-68
2022/07/05 09:34:06;;;;;;;1.85;1.65;;;28.70;42.60;;;;;;5072027;28;20270;-68
2022/07/05 09:39:39;;;;;;;1.90;1.70;;;28.70;42.70;;;;;;5111548;27;20592;-63
2022/07/05 09:42:32;;;;;;;1.90;1.70;;;28.70;42.70;;;;;;5111311;28;20601;-63
2022/07/05 09:44:59;;;;;;;1.80;1.70;;;28.70;42.80;;;;;;5109909;28;20203;-63
2022/07/05 09:50:33;;;;;;;1.55;1.45;;;28.60;42.80;;;;;;5111253;28;20298;-63
2022/07/05 09:53:26;;;;;;;1.80;1.70;;;28.60;42.80;;;;;;5111921;28;20369;-63
2022/07/05 09:56:04;;;;;;;2.42;1.80;;;28.60;42.80;;;;;;5109654;28;20202;-63
2022/07/05 09:58:32;;;;;;;1.90;1.73;;;28.60;42.80;;;;;;5110833;28;20208;-63
2022/07/05 10:00:59;;;;;;;1.60;1.50;;;28.60;42.80;;;;;;5111010;28;20191;-63
2022/07/05 10:03:26;;;;;;;1.80;1.70;;;28.60;42.80;;;;;;5110742;28;20185;-63
2022/07/05 10:05:53;;;;;;;1.60;1.50;;;28.60;42.80;;;;;;5109465;28;20199;-63
2022/07/05 10:08:21;;;;;;;2.15;1.60;;;28.50;42.80;;;;;;5110694;28;20727;-64
2022/07/05 10:10:48;;;;;;;1.60;1.50;;;28.50;42.90;;;;;;5109387;28;20205;-63
2022/07/05 10:13:17;;;;;;;1.75;1.65;;;28.60;42.80;;;;;;5110614;28;20196;-63
2022/07/05 10:15:44;;;;;;;1.60;1.50;;;28.50;42.80;;;;;;5109220;28;20193;-63
2022/07/05 10:18:13;;;;;;;1.75;1.65;;;28.50;42.90;;;;;;5110330;28;20751;-63
2022/07/05 10:20:42;;;;;;;1.58;1.48;;;28.40;43.10;;;;;;5109159;28;20271;-63
2022/07/05 10:23:10;;;;;;;1.70;1.60;;;28.30;43.40;;;;;;5110816;28;20185;-63
2022/07/05 10:25:37;;;;;;;1.85;1.70;;;28.20;43.70;;;;;;5109530;28;20751;-63
2022/07/05 10:28:04;;;;;;;1.70;1.40;;;28.20;44.40;;;;;;5111526;28;20193;-63
2022/07/05 10:30:33;;;;;;;1.58;1.48;;;28.20;43.80;;;;;;5109614;28;20215;-63
2022/07/05 10:33:01;;;;;;;1.58;1.33;;;28.20;43.90;;;;;;5111411;28;20559;-64
2022/07/05 10:35:28;;;;;;;1.67;1.52;;;28.20;43.80;;;;;;5110260;28;20211;-63
2022/07/05 10:37:55;;;;;;;1.52;1.42;;;28.20;43.80;;;;;;5110279;28;20221;-63
2022/07/05 10:40:22;;;;;;;1.33;1.30;;;28.20;44.50;;;;;;5110323;28;20189;-63
2022/07/05 10:42:52;;;;;;;2.47;1.70;;;28.10;43.90;;;;;;5108896;28;20193;-64
2022/07/05 10:45:27;;;;;;;1.40;1.30;;;28.10;44.10;;;;;;5110331;28;20189;-63
2022/07/05 10:48:14;;;;;;;1.38;1.35;;;28.10;44.80;;;;;;5110009;28;20201;-63
2022/07/05 10:50:45;;;;;;;1.50;1.40;;;28.00;44.20;;;;;;5095672;28;20729;-64
2022/07/05 10:53:13;;;;;;;1.50;1.40;;;28.00;44.30;;;;;;5095156;28;20736;-63
2022/07/05 10:55:55;;;;;;;1.50;1.40;;;28.00;44.40;;;;;;5096467;28;20328;-63
2022/07/05 10:58:30;;;;;;;1.73;1.40;;;27.90;44.50;;;;;;5094837;28;20217;-63
2022/07/05 11:01:35;;;;;;;2.40;1.58;;;27.90;44.60;;;;;;5096419;28;20173;-63
2022/07/05 11:04:34;;;;;;;1.50;1.40;;;27.90;44.70;;;;;;5095149;28;20615;-63
2022/07/05 11:07:01;;;;;;;1.77;1.60;;;27.80;44.70;;;;;;5094669;28;20224;-63
2022/07/05 11:09:29;;;;;;;1.27;1.23;;;27.80;44.80;;;;;;5094453;28;20197;-63
2022/07/05 11:12:10;;;;;;;1.40;1.30;;;27.80;45.00;;;;;;5094413;28;20255;-63
2022/07/05 11:14:38;;;;;;;1.50;1.40;;;27.70;45.00;;;;;;5094356;28;20185;-63
2022/07/05 11:17:26;;;;;;;1.50;1.40;;;27.70;45.00;;;;;;5094187;28;20227;-63
2022/07/05 11:20:12;;;;;;;1.58;1.48;;;27.70;45.10;;;;;;5095863;28;20219;-63
2022/07/05 11:22:41;;;;;;;1.50;1.30;;;27.60;45.20;;;;;;5094260;28;20189;-63
2022/07/05 11:25:09;;;;;;;1.58;1.45;;;27.60;45.10;;;;;;5094349;28;20576;-63
2022/07/05 11:27:37;;;;;;;1.50;1.40;;;27.60;45.30;;;;;;5095505;28;20213;-63
2022/07/05 11:30:05;;;;;;;1.70;1.60;;;27.50;45.30;;;;;;5095586;28;20190;-63
2022/07/05 11:32:37;;;;;;;1.40;1.30;;;27.50;45.40;;;;;;5093234;28;20197;-63
2022/07/05 11:35:16;;;;;;;1.80;1.33;;;27.40;45.50;;;;;;5094239;28;20189;-63
2022/07/05 11:38:03;;;;;;;1.70;1.60;;;27.40;45.70;;;;;;5095243;28;20284;-63
2022/07/05 11:40:32;;;;;;;1.65;1.38;;;27.40;45.70;;;;;;5094156;28;20616;-63
2022/07/05 11:43:01;;;;;;;1.40;1.30;;;27.40;45.80;;;;;;5095767;28;20193;-63
2022/07/05 11:45:28;;;;;;;1.52;1.42;;;27.40;45.80;;;;;;5095423;28;20280;-63
2022/07/05 11:47:57;;;;;;;1.70;1.60;;;27.40;45.90;;;;;;5095587;28;20251;-63
2022/07/05 11:50:30;;;;;;;1.20;1.20;;;27.30;45.90;;;;;;5094296;28;20205;-63
2022/07/05 11:52:58;;;;;;;1.50;1.40;;;27.30;45.90;;;;;;5094183;28;20246;-63
2022/07/05 11:55:27;;;;;;;1.63;1.52;;;27.30;46.00;;;;;;5095380;28;20193;-63
2022/07/05 11:57:55;;;;;;;1.50;1.40;;;27.30;46.10;;;;;;5097004;28;20211;-63
2022/07/05 12:02:55;;;;;;;1.52;1.42;;;27.20;46.20;;;;;;5028878;28;20239;-67
2022/07/05 12:05:23;;;;;;;1.33;1.25;;;27.20;46.20;;;;;;5015461;28;20199;-69
2022/07/05 12:07:51;;;;;;;1.40;1.30;;;27.20;46.30;;;;;;5015208;28;20212;-69
2022/07/05 12:13:05;;;;;;;1.88;1.48;;;27.20;46.40;;;;;;5015028;28;20613;-69
2022/07/05 12:15:33;;;;;;;1.65;1.52;;;27.20;46.60;;;;;;5013467;28;20220;-69
2022/07/05 12:18:03;;;;;;;1.48;1.38;;;27.10;46.50;;;;;;5013375;28;20223;-69
2022/07/05 12:20:30;;;;;;;1.35;1.25;;;27.10;46.50;;;;;;5013443;28;20199;-69
2022/07/05 12:23:00;;;;;;;1.30;1.20;;;27.10;46.60;;;;;;5015002;28;20224;-69
2022/07/05 12:25:27;;;;;;;1.10;1.10;;;27.00;46.80;;;;;;5013435;28;20203;-69
2022/07/05 12:27:55;;;;;;;1.45;1.35;;;27.00;46.80;;;;;;5013816;28;20220;-69
2022/07/05 12:30:23;;;;;;;1.60;1.50;;;27.10;46.90;;;;;;5013297;28;20290;-69
2022/07/05 12:33:00;;;;;;;1.63;1.52;;;27.10;46.90;;;;;;5014971;28;20192;-69
2022/07/05 12:35:31;;;;;;;1.10;1.10;;;27.10;46.80;;;;;;5016963;28;20226;-69
2022/07/05 12:38:04;;;;;;;1.60;1.50;;;27.00;46.80;;;;;;5017234;28;20215;-69
2022/07/05 12:40:31;;;;;;;1.40;1.30;;;27.00;46.80;;;;;;5016013;28;20277;-69
2022/07/05 12:43:06;;;;;;;1.40;1.30;;;27.10;46.90;;;;;;5015343;28;20192;-69
2022/07/05 12:45:33;;;;;;;1.58;1.48;;;27.00;46.90;;;;;;5013773;28;20256;-69
2022/07/05 12:48:02;;;;;;;1.20;1.20;;;27.10;46.90;;;;;;5013647;28;20639;-69
2022/07/05 12:50:29;;;;;;;1.27;1.20;;;27.10;47.50;;;;;;5013419;28;20291;-69
2022/07/05 12:58:01;;;;;;;1.55;1.45;;;27.10;47.00;;;;;;5014414;28;20223;-69
2022/07/05 12:58:44;;;;;;;1.40;1.27;;;27.00;46.90;;;;;;5013853;28;20318;-69
2022/07/05 13:01:20;;;;;;;1.40;1.30;;;27.00;46.90;;;;;;5013101;28;20261;-69
2022/07/05 13:04:00;;;;;;;1.42;1.33;;;27.00;46.80;;;;;;5012845;28;20184;-69
2022/07/05 13:06:47;;;;;;;1.15;1.10;;;27.00;47.00;;;;;;5014263;28;20210;-69
2022/07/05 13:09:15;;;;;;;1.40;1.30;;;27.00;47.10;;;;;;5019393;28;20207;-69
2022/07/05 13:11:44;;;;;;;1.00;1.00;;;27.00;47.80;;;;;;5016480;28;20188;-68
2022/07/05 13:14:11;;;;;;;1.40;1.30;;;27.00;47.20;;;;;;5013759;28;20615;-68
2022/07/05 13:16:38;;;;;;;1.13;1.10;;;27.00;47.20;;;;;;5012387;28;20806;-68